Terminal Aerodrome Forecast
Issued by NWS

Home | Current Version | Previous Version | Text Only | Print | Product List | Glossary On
Versions: 1 2 3 4 5 6 7 8 9 10 11 12 13 14 15 16 17 18 19 20 21 22
544
FTUS42 KJAX 030540
TAFCRG
TAF
KCRG 030540Z 0306/0406 19005KT P6SM FEW045 SCT060 OVC200
     FM030900 21005KT P6SM SCT015 BKN200
      TEMPO 0310/0314 BKN015
     FM031400 24010KT P6SM SCT035 BKN050
     FM031900 25011KT P6SM VCTS BKN040CB
     FM040000 25005KT P6SM VCSH SCT040 BKN120=

USA.gov is the U.S. government's official web portal to all federal, state and local government web resources and services.